createdAt,value
2023-04-11T00:02:07.407Z,90.89
2023-04-11T00:04:39.171Z,92.41
2023-04-11T00:07:11.388Z,93.59
2023-04-11T00:09:39.074Z,95.08
2023-04-11T00:12:07.685Z,96.08
2023-04-11T00:14:35.371Z,96.26
2023-04-11T00:17:03.078Z,97.25
2023-04-11T00:19:33.462Z,97.45
2023-04-11T00:22:01.460Z,97.10
2023-04-11T00:24:30.589Z,97.68
2023-04-11T00:26:58.393Z,98.89
2023-04-11T00:29:26.513Z,99.50
2023-04-11T00:31:55.494Z,99.95
2023-04-11T00:34:23.540Z,100.00
2023-04-11T00:36:51.455Z,97.74
2023-04-11T00:39:22.697Z,94.82
2023-04-11T00:41:51.828Z,94.12
2023-04-11T00:44:19.616Z,93.92
2023-04-11T00:46:47.585Z,90.81
2023-04-11T00:49:15.349Z,90.03
2023-04-11T00:51:43.976Z,89.89
2023-04-11T00:54:13.192Z,89.39
2023-04-11T00:56:41.101Z,91.11
2023-04-11T00:59:11.753Z,91.91
2023-04-11T01:01:39.536Z,93.17
2023-04-11T01:04:08.946Z,96.16
2023-04-11T01:06:37.673Z,97.26
2023-04-11T01:09:06.231Z,98.97
2023-04-11T01:11:35.202Z,100.00
2023-04-11T01:14:03.376Z,100.00
2023-04-11T01:16:35.148Z,100.00
2023-04-11T01:19:03.093Z,100.00
2023-04-11T01:21:32.956Z,100.00
2023-04-11T01:24:03.644Z,100.00
2023-04-11T01:26:31.435Z,100.00
2023-04-11T01:28:59.650Z,100.00
2023-04-11T01:31:31.997Z,100.00
2023-04-11T01:34:00.681Z,100.00
2023-04-11T01:36:31.058Z,100.00
2023-04-11T01:38:59.085Z,99.51
2023-04-11T01:41:34.818Z,100.00
2023-04-11T01:44:02.900Z,100.00
2023-04-11T01:46:33.750Z,100.00
2023-04-11T01:49:01.998Z,100.00
2023-04-11T01:51:29.765Z,99.47
2023-04-11T01:53:57.544Z,100.00
2023-04-11T01:56:25.269Z,100.00
2023-04-11T01:58:54.892Z,100.00
2023-04-11T02:01:22.919Z,100.00
2023-04-11T02:03:52.864Z,100.00
2023-04-11T02:06:21.480Z,100.00
2023-04-11T02:08:49.246Z,100.00
2023-04-11T02:11:17.985Z,100.00
2023-04-11T02:13:46.517Z,100.00
2023-04-11T02:16:15.835Z,97.61
2023-04-11T02:18:44.772Z,96.66
2023-04-11T02:21:12.598Z,96.64
2023-04-11T02:23:40.416Z,95.13
2023-04-11T02:26:08.160Z,93.72
2023-04-11T02:28:37.352Z,91.24
2023-04-11T02:31:08.829Z,88.42
2023-04-11T02:33:37.893Z,86.77
2023-04-11T02:36:06.594Z,84.36
2023-04-11T02:38:37.510Z,83.19
2023-04-11T02:41:05.967Z,82.30
2023-04-11T02:43:34.473Z,80.02
2023-04-11T02:46:12.204Z,80.12
2023-04-11T02:48:42.612Z,83.33
2023-04-11T02:51:11.377Z,83.37
2023-04-11T02:53:39.226Z,84.94
2023-04-11T02:56:10.706Z,85.64
2023-04-11T02:58:41.631Z,83.75
2023-04-11T03:01:11.790Z,83.80
2023-04-11T03:03:39.803Z,83.31
2023-04-11T03:06:10.485Z,82.00
2023-04-11T03:08:39.835Z,85.43
2023-04-11T03:11:07.627Z,88.39
2023-04-11T03:13:37.009Z,89.25
2023-04-11T03:16:05.334Z,87.80
2023-04-11T03:18:33.776Z,86.64
2023-04-11T03:21:13.322Z,87.09
2023-04-11T03:23:46.328Z,85.36
2023-04-11T03:26:15.901Z,83.32
2023-04-11T03:28:45.097Z,82.63
2023-04-11T03:31:17.658Z,80.62
2023-04-11T03:33:46.096Z,79.91
2023-04-11T03:36:13.980Z,78.53
2023-04-11T03:38:42.400Z,79.29
2023-04-11T03:41:12.223Z,79.06
2023-04-11T03:43:40.102Z,79.83
2023-04-11T03:46:08.563Z,79.52
2023-04-11T03:48:43.977Z,78.07
2023-04-11T03:51:11.761Z,74.79
2023-04-11T03:53:46.230Z,77.73
2023-04-11T03:56:41.531Z,77.29
2023-04-11T03:59:16.656Z,75.64
2023-04-11T04:02:07.404Z,80.97
2023-04-11T04:04:40.380Z,84.57
2023-04-11T04:07:22.275Z,85.66
2023-04-11T04:09:52.540Z,86.09
2023-04-11T04:12:22.467Z,85.28
2023-04-11T04:15:06.818Z,86.96
2023-04-11T04:17:34.686Z,85.99
2023-04-11T04:20:07.880Z,86.85
2023-04-11T04:22:37.997Z,85.65
2023-04-11T04:25:07.278Z,86.25
2023-04-11T04:27:44.321Z,83.57
2023-04-11T04:30:18.292Z,83.18
2023-04-11T04:33:12.070Z,84.22
2023-04-11T04:35:43.221Z,84.66
2023-04-11T04:38:17.706Z,90.33
2023-04-11T04:40:50.346Z,100.00
2023-04-11T04:43:27.096Z,100.00
2023-04-11T04:46:16.988Z,100.00
2023-04-11T04:48:52.969Z,100.00
2023-04-11T04:51:24.257Z,100.00
2023-04-11T04:53:52.205Z,100.00
2023-04-11T04:56:21.057Z,100.00
2023-04-11T04:58:54.216Z,100.00
2023-04-11T05:01:32.978Z,100.00
2023-04-11T05:04:02.654Z,100.00
2023-04-11T05:06:55.992Z,100.00
2023-04-11T05:09:24.212Z,100.00
2023-04-11T05:11:56.842Z,100.00
2023-04-11T05:14:32.299Z,100.00
2023-04-11T05:17:01.056Z,100.00
2023-04-11T05:19:29.941Z,100.00
2023-04-11T05:21:57.748Z,100.00
2023-04-11T05:24:27.397Z,100.00
2023-04-11T05:26:57.138Z,100.00
2023-04-11T05:29:25.058Z,100.00
2023-04-11T05:31:54.229Z,100.00
2023-04-11T05:34:22.186Z,100.00
2023-04-11T05:36:50.972Z,100.00
2023-04-11T05:39:18.759Z,100.00
2023-04-11T05:41:46.556Z,100.00
2023-04-11T05:44:14.309Z,100.00
2023-04-11T05:46:42.122Z,100.00
2023-04-11T05:49:11.581Z,100.00
2023-04-11T05:51:39.336Z,100.00
2023-04-11T05:54:08.166Z,100.00
2023-04-11T05:56:38.147Z,100.00
2023-04-11T05:59:05.937Z,100.00
2023-04-11T06:01:34.682Z,100.00
2023-04-11T06:04:04.628Z,100.00
2023-04-11T06:06:33.951Z,100.00
2023-04-11T06:09:04.782Z,100.00
2023-04-11T06:11:34.947Z,100.00
2023-04-11T06:14:02.802Z,100.00
2023-04-11T06:16:32.502Z,100.00
2023-04-11T06:19:00.417Z,100.00
2023-04-11T06:21:28.406Z,100.00
2023-04-11T06:23:57.683Z,100.00
2023-04-11T06:26:27.770Z,100.00
2023-04-11T06:28:55.728Z,100.00
2023-04-11T06:31:28.907Z,100.00
2023-04-11T06:36:42.689Z,100.00
2023-04-11T06:39:11.879Z,100.00
2023-04-11T06:41:39.703Z,100.00
2023-04-11T06:44:08.390Z,100.00
2023-04-11T06:46:36.225Z,100.00
2023-04-11T06:49:07.207Z,100.00
2023-04-11T06:51:34.948Z,100.00
2023-04-11T06:54:02.859Z,100.00
2023-04-11T06:56:31.987Z,100.00
2023-04-11T06:58:59.791Z,100.00
2023-04-11T07:01:30.734Z,100.00
2023-04-11T07:03:59.458Z,100.00
2023-04-11T07:06:27.861Z,100.00
2023-04-11T07:08:56.866Z,100.00
2023-04-11T07:11:24.637Z,100.00
2023-04-11T07:13:54.162Z,100.00
2023-04-11T07:16:22.118Z,100.00
2023-04-11T07:18:50.027Z,100.00
2023-04-11T07:21:17.757Z,100.00
2023-04-11T07:23:45.732Z,100.00
2023-04-11T07:26:16.863Z,100.00
2023-04-11T07:28:45.181Z,100.00
2023-04-11T07:31:15.162Z,100.00
2023-04-11T07:33:44.761Z,100.00
2023-04-11T07:36:12.874Z,100.00
2023-04-11T07:38:41.230Z,100.00
2023-04-11T07:41:10.005Z,100.00
2023-04-11T07:43:37.739Z,100.00
2023-04-11T07:46:07.258Z,100.00
2023-04-11T07:48:36.393Z,100.00
2023-04-11T07:51:05.684Z,100.00
2023-04-11T07:53:34.600Z,100.00
2023-04-11T07:56:02.366Z,100.00
2023-04-11T07:58:30.124Z,100.00
2023-04-11T08:00:57.916Z,100.00
2023-04-11T08:03:26.913Z,100.00
2023-04-11T08:05:56.556Z,100.00
2023-04-11T08:08:24.875Z,100.00
2023-04-11T08:10:52.711Z,100.00
2023-04-11T08:13:20.618Z,100.00
2023-04-11T08:15:48.389Z,100.00
2023-04-11T08:18:16.346Z,100.00
2023-04-11T08:20:44.132Z,100.00
2023-04-11T08:23:13.241Z,100.00
2023-04-11T08:25:43.113Z,100.00
2023-04-11T08:28:12.208Z,100.00
2023-04-11T08:30:42.083Z,100.00
2023-04-11T08:33:10.113Z,100.00
2023-04-11T08:35:40.159Z,99.93
2023-04-11T08:38:08.140Z,94.91
2023-04-11T08:40:37.404Z,95.59
2023-04-11T08:43:11.848Z,92.49
2023-04-11T08:45:39.852Z,95.18
2023-04-11T08:48:08.153Z,90.77
2023-04-11T08:50:36.395Z,90.58
2023-04-11T08:53:05.193Z,87.69
2023-04-11T08:55:35.322Z,86.18
2023-04-11T08:58:04.386Z,85.82
2023-04-11T09:00:32.621Z,85.87
2023-04-11T09:03:02.933Z,85.39
2023-04-11T09:05:34.996Z,85.12
2023-04-11T09:08:08.126Z,86.05
2023-04-11T09:10:37.016Z,84.94
2023-04-11T09:13:21.216Z,87.46
2023-04-11T09:15:50.001Z,86.55
2023-04-11T09:18:33.909Z,86.34
2023-04-11T09:21:04.629Z,86.31
2023-04-11T09:23:34.900Z,82.86
2023-04-11T09:26:02.690Z,79.65
2023-04-11T09:28:41.536Z,83.95
2023-04-11T09:31:12.922Z,82.50
2023-04-11T09:33:52.660Z,82.56
2023-04-11T09:36:23.587Z,80.09
2023-04-11T09:38:51.569Z,81.17
2023-04-11T09:41:33.418Z,82.48
2023-04-11T09:44:02.973Z,80.01
2023-04-11T09:46:31.037Z,79.60
2023-04-11T09:49:01.461Z,80.23
2023-04-11T09:51:36.379Z,75.64
2023-04-11T09:54:06.028Z,75.85
2023-04-11T09:56:35.747Z,78.78
2023-04-11T09:59:08.224Z,73.90
2023-04-11T10:01:39.142Z,76.17
2023-04-11T10:04:06.873Z,78.00
2023-04-11T10:06:42.473Z,77.04
2023-04-11T10:09:12.860Z,77.26
2023-04-11T10:11:42.328Z,76.73
2023-04-11T10:14:43.986Z,72.99
2023-04-11T10:17:13.705Z,77.15
2023-04-11T10:19:41.637Z,75.82
2023-04-11T10:22:09.535Z,74.89
2023-04-11T10:24:37.267Z,74.39
2023-04-11T10:27:07.868Z,73.88
2023-04-11T10:29:52.848Z,72.88
2023-04-11T10:32:25.885Z,73.98
2023-04-11T10:35:21.570Z,74.21
2023-04-11T10:37:50.356Z,70.09
2023-04-11T10:40:20.454Z,67.75
2023-04-11T10:42:49.117Z,61.42
2023-04-11T10:45:26.574Z,60.36
2023-04-11T10:48:07.402Z,61.09
2023-04-11T10:50:44.415Z,58.03
2023-04-11T10:53:36.544Z,58.60
2023-04-11T10:56:04.617Z,56.01
2023-04-11T10:58:37.780Z,52.09
2023-04-11T11:01:31.903Z,54.51
2023-04-11T11:04:06.315Z,52.03
2023-04-11T11:06:46.065Z,53.79
2023-04-11T11:09:23.127Z,54.24
2023-04-11T11:12:08.833Z,54.31
2023-04-11T11:14:36.983Z,56.79
2023-04-11T11:17:06.406Z,56.58
2023-04-11T11:19:35.523Z,57.83
2023-04-11T11:22:06.773Z,58.69
2023-04-11T11:24:34.555Z,56.59
2023-04-11T11:27:02.348Z,57.46
2023-04-11T11:29:35.601Z,59.11
2023-04-11T11:32:04.939Z,56.95
2023-04-11T11:34:35.989Z,52.91
2023-04-11T11:37:05.289Z,51.34
2023-04-11T11:39:36.091Z,48.53
2023-04-11T11:42:06.754Z,49.21
2023-04-11T11:44:34.519Z,48.42
2023-04-11T11:47:03.614Z,47.19
2023-04-11T11:49:46.307Z,46.26
2023-04-11T11:52:14.183Z,46.55
2023-04-11T11:54:45.941Z,46.23
2023-04-11T11:57:22.600Z,46.02
2023-04-11T11:59:55.199Z,46.00
2023-04-11T12:02:24.351Z,47.07
2023-04-11T12:04:59.726Z,46.95
2023-04-11T12:07:28.230Z,47.13
2023-04-11T12:09:59.866Z,47.15
2023-04-11T12:12:37.157Z,46.91
2023-04-11T12:15:10.904Z,46.97
2023-04-11T12:17:39.287Z,47.60
2023-04-11T12:20:10.710Z,49.10
2023-04-11T12:22:39.164Z,48.67
2023-04-11T12:25:08.401Z,46.40
2023-04-11T12:27:38.512Z,46.82
2023-04-11T12:30:07.462Z,47.12
2023-04-11T12:32:35.521Z,43.94
2023-04-11T12:35:04.341Z,45.87
2023-04-11T12:37:34.191Z,44.33
2023-04-11T12:40:03.897Z,45.82
2023-04-11T12:42:33.289Z,46.78
2023-04-11T12:45:02.480Z,46.74
2023-04-11T12:47:30.204Z,47.20
2023-04-11T12:49:57.961Z,46.49
2023-04-11T12:52:26.338Z,47.99
2023-04-11T12:54:55.816Z,46.56
2023-04-11T12:57:23.908Z,46.18
2023-04-11T12:59:52.409Z,45.37
2023-04-11T13:02:20.883Z,45.20
2023-04-11T13:04:53.277Z,46.13
2023-04-11T13:07:21.547Z,46.37
2023-04-11T13:09:51.944Z,45.87
2023-04-11T13:12:23.619Z,45.98
2023-04-11T13:14:52.348Z,45.92
2023-04-11T13:17:20.081Z,46.42
2023-04-11T13:19:47.820Z,44.76
2023-04-11T13:22:15.606Z,43.67
2023-04-11T13:24:44.631Z,43.33
2023-04-11T13:27:12.400Z,41.41
2023-04-11T13:29:41.988Z,41.91
2023-04-11T13:32:09.757Z,41.74
2023-04-11T13:34:37.448Z,41.19
2023-04-11T13:37:05.290Z,41.79
2023-04-11T13:39:33.056Z,41.39
2023-04-11T13:42:00.793Z,41.23
2023-04-11T13:44:28.524Z,41.73
2023-04-11T13:46:57.743Z,41.43
2023-04-11T13:49:25.567Z,41.95
2023-04-11T13:51:53.272Z,42.12
2023-04-11T13:54:21.041Z,42.34
2023-04-11T13:56:48.975Z,42.19
2023-04-11T13:59:16.700Z,42.40
2023-04-11T14:01:50.501Z,43.51
2023-04-11T14:04:19.852Z,42.65
2023-04-11T14:06:47.597Z,42.31
2023-04-11T14:09:15.324Z,41.98
2023-04-11T14:11:43.047Z,42.56
2023-04-11T14:14:30.293Z,42.75
2023-04-11T14:16:58.116Z,42.32
2023-04-11T14:19:27.368Z,43.01
2023-04-11T14:21:55.136Z,41.71
2023-04-11T14:24:22.881Z,42.25
2023-04-11T14:26:50.761Z,42.31
2023-04-11T14:29:20.989Z,43.43
2023-04-11T14:31:50.419Z,41.74
2023-04-11T14:34:19.497Z,41.70
2023-04-11T14:36:48.660Z,41.36
2023-04-11T14:39:17.233Z,40.92
2023-04-11T14:41:45.030Z,41.02
2023-04-11T14:44:13.395Z,39.39
2023-04-11T14:46:41.263Z,36.75
2023-04-11T14:49:09.368Z,35.84
2023-04-11T14:51:37.673Z,36.43
2023-04-11T14:54:07.301Z,36.11
2023-04-11T14:56:35.150Z,35.79
2023-04-11T14:59:06.686Z,34.95
2023-04-11T15:01:34.459Z,35.33
2023-04-11T15:04:02.394Z,35.14
2023-04-11T15:06:31.667Z,36.09
2023-04-11T15:09:00.098Z,35.68
2023-04-11T15:11:29.378Z,36.55
2023-04-11T15:13:59.506Z,36.75
2023-04-11T15:16:27.375Z,37.82
2023-04-11T15:18:55.552Z,38.12
2023-04-11T15:21:24.294Z,38.20
2023-04-11T15:23:52.245Z,38.65
2023-04-11T15:26:20.003Z,39.16
2023-04-11T15:28:51.646Z,39.44
2023-04-11T15:31:26.336Z,39.61
2023-04-11T15:33:57.169Z,40.58
2023-04-11T15:36:26.250Z,40.83
2023-04-11T15:38:54.021Z,41.92
2023-04-11T15:41:22.411Z,41.13
2023-04-11T15:43:51.540Z,41.35
2023-04-11T15:46:21.425Z,40.21
2023-04-11T15:48:49.389Z,39.71
2023-04-11T15:51:17.969Z,39.07
2023-04-11T15:53:48.298Z,38.61
2023-04-11T15:56:17.660Z,38.82
2023-04-11T15:58:45.501Z,39.35
2023-04-11T16:01:22.787Z,38.76
2023-04-11T16:03:51.619Z,39.42
2023-04-11T16:06:19.942Z,40.33
2023-04-11T16:08:48.536Z,41.38
2023-04-11T16:11:16.311Z,41.27
2023-04-11T16:13:45.077Z,41.24
2023-04-11T16:16:12.932Z,42.28
2023-04-11T16:18:44.531Z,41.58
2023-04-11T16:21:17.792Z,41.80
2023-04-11T16:23:45.610Z,41.30
2023-04-11T16:26:15.700Z,42.57
2023-04-11T16:28:46.795Z,41.71
2023-04-11T16:31:21.809Z,41.72
2023-04-11T16:33:53.131Z,42.18
2023-04-11T16:36:23.031Z,42.29
2023-04-11T16:38:50.869Z,42.09
2023-04-11T16:41:18.633Z,43.00
2023-04-11T16:43:46.418Z,43.51
2023-04-11T16:46:15.592Z,42.47
2023-04-11T16:48:48.708Z,43.45
2023-04-11T16:51:21.420Z,42.68
2023-04-11T16:53:50.160Z,41.61
2023-04-11T16:56:20.542Z,42.08
2023-04-11T16:58:48.468Z,41.43
2023-04-11T17:01:16.360Z,41.42
2023-04-11T17:03:44.878Z,41.69
2023-04-11T17:06:14.661Z,41.89
2023-04-11T17:08:44.541Z,43.00
2023-04-11T17:11:13.443Z,42.47
2023-04-11T17:13:45.047Z,42.07
2023-04-11T17:16:13.602Z,41.65
2023-04-11T17:18:42.536Z,42.25
2023-04-11T17:21:12.954Z,42.52
2023-04-11T17:23:43.468Z,42.79
2023-04-11T17:26:16.419Z,43.72
2023-04-11T17:28:47.748Z,44.06
2023-04-11T17:31:17.288Z,44.23
2023-04-11T17:33:45.751Z,47.02
2023-04-11T17:36:15.577Z,49.67
2023-04-11T17:38:45.226Z,51.97
2023-04-11T17:41:18.747Z,53.95
2023-04-11T17:43:46.473Z,59.92
2023-04-11T17:46:15.436Z,67.83
2023-04-11T17:48:47.382Z,69.98
2023-04-11T17:51:15.318Z,74.05
2023-04-11T17:53:49.459Z,80.38
2023-04-11T17:56:20.397Z,84.06
2023-04-11T17:58:50.661Z,88.46
2023-04-11T18:01:21.124Z,93.14
2023-04-11T18:03:53.801Z,95.61
2023-04-11T18:06:21.612Z,96.20
2023-04-11T18:08:51.006Z,98.15
2023-04-11T18:11:21.009Z,99.50
2023-04-11T18:13:50.434Z,100.00
2023-04-11T18:16:18.629Z,100.00
2023-04-11T18:18:48.303Z,100.00
2023-04-11T18:21:16.318Z,100.00
2023-04-11T18:23:48.489Z,100.00
2023-04-11T18:26:16.222Z,100.00
2023-04-11T18:28:47.417Z,100.00
2023-04-11T18:31:28.888Z,100.00
2023-04-11T18:33:56.919Z,100.00
2023-04-11T18:36:26.308Z,100.00
2023-04-11T18:38:55.499Z,100.00
2023-04-11T18:41:24.780Z,100.00
2023-04-11T18:43:53.901Z,100.00
2023-04-11T18:46:21.645Z,100.00
2023-04-11T18:48:50.009Z,100.00
2023-04-11T18:51:21.372Z,100.00
2023-04-11T18:53:49.378Z,100.00
2023-04-11T18:56:19.370Z,100.00
2023-04-11T18:58:49.773Z,100.00
2023-04-11T19:01:22.911Z,100.00
2023-04-11T19:03:54.379Z,100.00
2023-04-11T19:06:25.950Z,100.00
2023-04-11T19:08:56.019Z,100.00
2023-04-11T19:11:25.241Z,100.00
2023-04-11T19:13:55.042Z,100.00
2023-04-11T19:16:24.271Z,100.00
2023-04-11T19:18:52.099Z,100.00
2023-04-11T19:21:20.920Z,100.00
2023-04-11T19:23:49.605Z,100.00
2023-04-11T19:26:18.148Z,100.00
2023-04-11T19:28:46.266Z,100.00
2023-04-11T19:31:14.358Z,100.00
2023-04-11T19:33:43.556Z,100.00
2023-04-11T19:36:11.335Z,100.00
2023-04-11T19:38:44.114Z,100.00
2023-04-11T19:41:14.980Z,100.00
2023-04-11T19:43:45.521Z,100.00
2023-04-11T19:46:13.360Z,100.00
2023-04-11T19:48:43.307Z,100.00
2023-04-11T19:51:12.310Z,100.00
2023-04-11T19:53:40.071Z,100.00
2023-04-11T19:56:09.895Z,100.00
2023-04-11T19:58:37.714Z,100.00
2023-04-11T20:01:08.532Z,100.00
2023-04-11T20:03:37.293Z,100.00
2023-04-11T20:06:09.836Z,100.00
2023-04-11T20:08:38.090Z,100.00
2023-04-11T20:11:07.091Z,100.00
2023-04-11T20:13:36.995Z,100.00
2023-04-11T20:16:08.979Z,100.00
2023-04-11T20:18:36.720Z,100.00
2023-04-11T20:21:09.327Z,100.00
2023-04-11T20:23:37.068Z,100.00
2023-04-11T20:26:04.971Z,100.00
2023-04-11T20:28:32.899Z,100.00
2023-04-11T20:31:00.895Z,100.00
2023-04-11T20:33:29.764Z,100.00
2023-04-11T20:35:58.172Z,100.00
2023-04-11T20:38:27.576Z,100.00
2023-04-11T20:40:55.620Z,100.00
2023-04-11T20:43:26.533Z,100.00
2023-04-11T20:45:54.503Z,100.00
2023-04-11T20:48:22.269Z,100.00
2023-04-11T20:50:53.499Z,100.00
2023-04-11T20:53:21.611Z,100.00
2023-04-11T20:55:50.957Z,100.00
2023-04-11T20:58:20.754Z,100.00
2023-04-11T21:00:48.655Z,100.00
2023-04-11T21:03:16.670Z,100.00
2023-04-11T21:05:46.660Z,100.00
2023-04-11T21:08:15.505Z,100.00
2023-04-11T21:10:43.233Z,100.00
2023-04-11T21:13:13.094Z,100.00
2023-04-11T21:15:40.851Z,100.00
2023-04-11T21:18:08.607Z,100.00
2023-04-11T21:20:36.440Z,100.00
2023-04-11T21:23:04.331Z,100.00
2023-04-11T21:25:35.149Z,100.00
2023-04-11T21:28:03.366Z,100.00
2023-04-11T21:30:32.616Z,100.00
2023-04-11T21:33:01.058Z,100.00
2023-04-11T21:35:29.596Z,100.00
2023-04-11T21:37:57.337Z,100.00
2023-04-11T21:40:25.099Z,100.00
2023-04-11T21:42:53.243Z,100.00
2023-04-11T21:45:23.016Z,100.00
2023-04-11T21:47:52.537Z,100.00
2023-04-11T21:50:20.319Z,100.00
2023-04-11T21:52:48.087Z,100.00
2023-04-11T21:55:16.347Z,100.00
2023-04-11T21:57:44.126Z,100.00
2023-04-11T22:00:12.464Z,100.00
2023-04-11T22:02:40.772Z,100.00
2023-04-11T22:05:10.661Z,100.00
2023-04-11T22:07:47.810Z,100.00
2023-04-11T22:10:22.112Z,100.00
2023-04-11T22:12:49.857Z,100.00
2023-04-11T22:15:18.774Z,100.00
2023-04-11T22:17:50.435Z,100.00
2023-04-11T22:20:21.118Z,100.00
2023-04-11T22:22:48.847Z,100.00
2023-04-11T22:25:18.304Z,100.00
2023-04-11T22:27:46.154Z,100.00
2023-04-11T22:30:15.268Z,100.00
2023-04-11T22:32:43.106Z,100.00
2023-04-11T22:35:10.874Z,100.00
2023-04-11T22:37:40.061Z,100.00
2023-04-11T22:40:11.652Z,100.00
2023-04-11T22:42:39.823Z,100.00
2023-04-11T22:45:20.153Z,100.00
2023-04-11T22:47:47.955Z,100.00
2023-04-11T22:50:16.555Z,100.00
2023-04-11T22:52:48.586Z,100.00
2023-04-11T22:55:21.079Z,100.00
2023-04-11T22:57:48.986Z,100.00
2023-04-11T23:00:18.776Z,100.00
2023-04-11T23:02:47.087Z,100.00
2023-04-11T23:05:14.839Z,100.00
2023-04-11T23:07:42.524Z,100.00
2023-04-11T23:10:15.384Z,100.00
2023-04-11T23:12:44.330Z,100.00
2023-04-11T23:15:12.804Z,100.00
2023-04-11T23:17:42.217Z,100.00
2023-04-11T23:20:12.782Z,100.00
2023-04-11T23:22:43.612Z,100.00
2023-04-11T23:25:14.943Z,100.00
2023-04-11T23:27:43.808Z,100.00
2023-04-11T23:30:12.882Z,100.00
2023-04-11T23:32:41.390Z,100.00
2023-04-11T23:35:10.664Z,100.00
2023-04-11T23:37:38.412Z,100.00
2023-04-11T23:40:10.492Z,100.00
2023-04-11T23:42:40.490Z,100.00
2023-04-11T23:45:10.547Z,100.00
2023-04-11T23:47:38.728Z,100.00
2023-04-11T23:50:07.807Z,100.00
2023-04-11T23:52:35.579Z,100.00
2023-04-11T23:55:03.637Z,100.00
2023-04-11T23:57:31.915Z,100.00
